Time;durP1;ratioP1;P1;durP2;ratioP2;P2;SDS_P1;SDS_P2;PMS_P1;PMS_P2;Temp;Humidity;BMP_temperature;BMP_pressure;BME280_temperature;BME280_humidity;BME280_pressure;Samples;Min_cycle;Max_cycle;Signal;HPM_P1;HPM_P2
2023/10/07 00:00:31;;;;;;;13.02;10.65;;;;;;;-144.30;62.79;84931.28;5111412;28;20634;-56
2023/10/07 00:03:00;;;;;;;10.63;9.52;;;;;;;-144.30;63.22;84901.47;5111016;28;20245;-57
2023/10/07 00:05:31;;;;;;;10.90;9.77;;;;;;;-144.30;63.43;84871.66;5110816;28;20198;-57
2023/10/07 00:08:00;;;;;;;15.35;9.85;;;;;;;-144.30;64.09;85008.81;5110901;28;20593;-58
2023/10/07 00:10:29;;;;;;;21.02;10.57;;;;;;;-144.30;64.42;84996.88;5110998;27;20194;-58
2023/10/07 00:12:58;;;;;;;10.65;9.68;;;;;;;-144.30;64.54;84927.31;5110802;28;20285;-59
2023/10/07 00:15:28;;;;;;;13.27;9.35;;;;;;;-144.30;64.61;84994.91;5110683;28;20627;-59
2023/10/07 00:17:57;;;;;;;12.18;9.48;;;;;;;-144.30;64.67;84961.09;5110677;28;20210;-58
2023/10/07 00:20:26;;;;;;;12.15;9.98;;;;;;;-144.30;64.70;84927.31;5110570;28;20285;-58
2023/10/07 00:22:57;;;;;;;16.23;10.10;;;;;;;-144.30;64.69;84931.28;5110833;28;20293;-59
2023/10/07 00:25:24;;;;;;;13.98;9.50;;;;;;;-144.30;65.33;85372.56;5110575;28;20217;-58
2023/10/07 00:27:53;;;;;;;14.20;9.95;;;;;;;-144.30;66.13;85022.72;5110343;28;20229;-58
2023/10/07 00:30:21;;;;;;;11.85;10.23;;;;;;;-144.30;66.66;85046.56;5110597;28;20215;-58
2023/10/07 00:32:50;;;;;;;11.43;9.32;;;;;;;-144.30;66.80;85038.63;5110402;28;20577;-59
2023/10/07 00:35:19;;;;;;;13.40;9.55;;;;;;;-144.30;66.84;85030.66;5110521;28;20205;-58
2023/10/07 00:37:49;;;;;;;10.65;9.57;;;;;;;-144.30;67.26;85006.81;5110324;28;20194;-59
2023/10/07 00:40:24;;;;;;;15.82;10.20;;;;;;;-144.30;67.62;85048.56;5110571;28;20190;-60
2023/10/07 00:42:52;;;;;;;12.30;9.40;;;;;;;-144.30;67.64;84986.94;5110453;28;20217;-58
2023/10/07 00:45:20;;;;;;;11.50;9.77;;;;;;;-144.30;67.56;85026.69;5110252;28;20190;-57
2023/10/07 00:47:49;;;;;;;11.13;10.02;;;;;;;-144.30;67.65;85026.69;5110699;28;20202;-57
2023/10/07 00:50:17;;;;;;;14.82;10.45;;;;;;;-144.30;68.05;85038.63;5110337;28;20194;-58
2023/10/07 00:52:55;;;;;;;14.98;10.13;;;;;;;-144.30;67.92;85040.59;5110105;28;20724;-57
2023/10/07 00:55:28;;;;;;;11.45;10.18;;;;;;;-144.30;68.21;85022.72;5110346;28;20203;-58
2023/10/07 00:58:07;;;;;;;15.98;10.68;;;;;;;-144.30;67.04;85032.66;5110957;28;20745;-60
2023/10/07 01:00:43;;;;;;;14.00;9.07;;;;;;;-144.30;65.89;85040.59;5114671;28;20302;-58
2023/10/07 01:03:23;;;;;;;11.57;8.15;;;;;;;-144.30;64.53;85076.38;5114645;28;20258;-59
2023/10/07 01:06:10;;;;;;;9.85;7.30;;;;;;;-144.30;62.53;85050.53;5114387;28;20200;-58
2023/10/07 01:08:41;;;;;;;10.25;7.85;;;;;;;-144.30;59.40;85006.81;5114520;28;20217;-59
2023/10/07 01:11:19;;;;;;;8.73;6.18;;;;;;;-144.30;57.90;85086.31;5114662;28;20232;-58
2023/10/07 01:13:50;;;;;;;6.90;5.05;;;;;;;-144.30;56.18;85082.34;5114782;27;20186;-58
2023/10/07 01:16:27;;;;;;;6.40;4.97;;;;;;;-144.30;56.24;85076.38;5114421;28;20198;-58
2023/10/07 01:19:02;;;;;;;5.55;4.07;;;;;;;-144.30;55.72;85088.31;5114344;27;20205;-57
2023/10/07 01:21:32;;;;;;;8.93;4.10;;;;;;;-144.30;55.41;85098.25;5114369;28;20508;-57
2023/10/07 01:24:05;;;;;;;5.45;4.53;;;;;;;-144.30;54.54;85130.06;5114259;28;20366;-58
2023/10/07 01:26:36;;;;;;;10.95;4.88;;;;;;;-144.30;52.75;85124.09;5113772;28;20270;-57
2023/10/07 01:29:12;;;;;;;4.53;3.13;;;;;;;-144.30;51.16;85086.31;5113925;28;20202;-57
2023/10/07 01:31:59;;;;;;;5.13;3.77;;;;;;;-144.30;50.90;85116.16;5114308;28;20258;-57
2023/10/07 01:34:29;;;;;;;7.55;3.63;;;;;;;-144.30;50.97;85143.97;5113801;28;20668;-58
2023/10/07 01:36:55;;;;;;;5.97;4.07;;;;;;;-144.30;51.68;85130.06;5113763;27;20195;-58
2023/10/07 01:39:24;;;;;;;7.30;4.17;;;;;;;-144.30;51.57;85169.81;5113757;28;20200;-57
2023/10/07 01:41:51;;;;;;;5.97;3.67;;;;;;;-144.30;51.33;85018.75;5113845;28;20641;-57
2023/10/07 01:44:24;;;;;;;5.03;3.90;;;;;;;-144.30;50.91;85140.00;5113883;28;20198;-57
2023/10/07 01:46:56;;;;;;;5.47;3.40;;;;;;;-144.30;50.87;85183.72;5113825;28;20278;-58
2023/10/07 01:49:23;;;;;;;6.23;3.43;;;;;;;-144.30;51.21;85181.75;5113732;28;20593;-57
2023/10/07 01:51:52;;;;;;;5.80;4.03;;;;;;;-144.30;51.45;85177.75;5113687;28;20199;-57
2023/10/07 01:54:20;;;;;;;3.80;3.50;;;;;;;-144.30;51.40;85058.50;5113608;28;20213;-57
2023/10/07 01:56:52;;;;;;;3.70;3.40;;;;;;;-144.30;51.54;85187.69;5113756;28;20199;-58
2023/10/07 01:59:19;;;;;;;5.40;3.60;;;;;;;-144.30;51.58;85187.69;5113548;28;20202;-58
2023/10/07 02:01:57;;;;;;;4.27;3.40;;;;;;;-144.30;51.06;85189.69;5113219;28;20195;-58
2023/10/07 02:04:26;;;;;;;4.70;3.90;;;;;;;-144.30;50.87;85153.91;5113265;28;20252;-58
2023/10/07 02:06:54;;;;;;;3.80;3.23;;;;;;;-144.30;50.34;85225.47;5113333;28;20195;-58
2023/10/07 02:09:25;;;;;;;9.33;3.53;;;;;;;-144.30;50.48;85183.72;5113520;28;20560;-60
2023/10/07 02:11:55;;;;;;;5.73;3.27;;;;;;;-144.30;50.79;85233.44;5113230;28;20195;-60
2023/10/07 02:14:24;;;;;;;5.63;3.73;;;;;;;-144.30;50.65;85189.69;5113055;28;20198;-58
2023/10/07 02:16:52;;;;;;;4.27;3.20;;;;;;;-144.30;50.55;85213.53;5113160;28;20206;-59
2023/10/07 02:19:29;;;;;;;3.87;3.23;;;;;;;-144.30;50.84;85225.47;5113068;28;20226;-57
2023/10/07 02:22:03;;;;;;;6.70;3.27;;;;;;;-144.30;50.96;85241.38;5112963;28;20224;-57
2023/10/07 02:24:31;;;;;;;5.73;3.20;;;;;;;-144.30;50.62;85201.63;5112865;28;20656;-58
2023/10/07 02:27:07;;;;;;;6.53;3.10;;;;;;;-144.30;50.82;85227.47;5112673;28;20542;-57
2023/10/07 02:29:35;;;;;;;4.77;3.10;;;;;;;-144.30;50.99;85213.53;5112699;28;20198;-57
2023/10/07 02:32:12;;;;;;;7.97;3.37;;;;;;;-144.30;50.74;85233.44;5113186;28;20195;-56
2023/10/07 02:34:51;;;;;;;3.70;2.67;;;;;;;-144.30;51.43;85241.38;5112638;28;20228;-57
2023/10/07 02:37:21;;;;;;;4.23;3.17;;;;;;;-144.30;51.16;85259.28;5112677;27;20285;-57
2023/10/07 02:39:48;;;;;;;6.10;2.80;;;;;;;-144.30;51.68;85275.16;5112582;28;20241;-57
2023/10/07 02:42:28;;;;;;;5.33;3.47;;;;;;;-144.30;52.15;85267.22;5112395;28;20676;-57
2023/10/07 02:45:01;;;;;;;6.00;4.07;;;;;;;-144.30;52.44;85303.00;5112726;28;20608;-60
2023/10/07 02:47:31;;;;;;;8.93;3.27;;;;;;;-144.30;52.22;85255.28;5112343;28;20198;-58
2023/10/07 02:50:00;;;;;;;7.53;3.47;;;;;;;-144.30;52.48;85253.31;5112879;28;20250;-58
2023/10/07 02:52:34;;;;;;;5.20;3.70;;;;;;;-144.30;52.37;85247.34;5112277;28;20191;-58
2023/10/07 02:55:27;;;;;;;6.33;2.87;;;;;;;-144.30;52.41;85293.06;5112651;28;20676;-56
2023/10/07 02:57:56;;;;;;;4.33;3.17;;;;;;;-144.30;52.58;85253.31;5112537;28;20198;-57
2023/10/07 03:00:35;;;;;;;5.83;3.27;;;;;;;-144.30;52.67;85287.09;5112509;28;20660;-57
2023/10/07 03:03:20;;;;;;;6.20;3.00;;;;;;;-144.30;52.55;85312.94;5112181;28;20233;-57
2023/10/07 03:05:57;;;;;;;4.80;3.50;;;;;;;-144.30;52.61;85273.19;5112083;28;20199;-56
2023/10/07 03:08:31;;;;;;;4.30;3.30;;;;;;;-144.30;52.73;85289.09;5112421;27;20198;-57
2023/10/07 03:11:09;;;;;;;6.50;3.70;;;;;;;-144.30;52.76;85297.03;5111841;28;20226;-58
2023/10/07 03:13:38;;;;;;;6.90;3.40;;;;;;;-144.30;53.05;85287.09;5111949;28;20229;-58
2023/10/07 03:16:27;;;;;;;5.13;3.07;;;;;;;-144.30;52.99;85281.13;5111973;28;20197;-57
2023/10/07 03:19:06;;;;;;;4.23;3.20;;;;;;;-144.30;52.85;85269.22;5112197;27;20202;-57
2023/10/07 03:24:28;;;;;;;5.97;3.30;;;;;;;-144.30;52.73;85275.16;5111528;28;20238;-56
2023/10/07 03:27:05;;;;;;;3.57;3.30;;;;;;;-144.30;52.43;85253.31;5112009;28;20234;-56
2023/10/07 03:29:37;;;;;;;6.17;3.10;;;;;;;-144.30;52.47;85277.16;5111797;28;20222;-57
2023/10/07 03:32:12;;;;;;;5.47;3.60;;;;;;;-144.30;52.81;85275.16;5111451;28;20668;-57
2023/10/07 03:34:43;;;;;;;5.57;3.53;;;;;;;-144.30;52.59;85301.00;5111395;28;20221;-57
2023/10/07 03:37:16;;;;;;;4.33;3.47;;;;;;;-144.30;52.63;85291.06;5111865;28;20191;-57
2023/10/07 03:39:44;;;;;;;10.97;3.33;;;;;;;-144.30;52.80;85312.94;5111378;28;20198;-57
2023/10/07 03:42:14;;;;;;;6.80;3.87;;;;;;;-144.30;52.63;85289.09;5111461;28;20195;-57
2023/10/07 03:44:42;;;;;;;4.43;3.30;;;;;;;-144.30;53.26;85336.78;5111102;28;20194;-57
2023/10/07 03:47:11;;;;;;;4.57;3.20;;;;;;;-144.30;53.17;85312.94;5111595;28;20550;-58
2023/10/07 03:49:39;;;;;;;4.40;3.30;;;;;;;-144.30;53.53;85340.78;5111202;28;20194;-56
2023/10/07 03:52:08;;;;;;;5.43;3.77;;;;;;;-144.30;53.29;85330.84;5111468;28;20222;-57
2023/10/07 03:54:35;;;;;;;7.80;4.17;;;;;;;-144.30;53.14;85316.91;5111345;28;20186;-58
2023/10/07 03:57:03;;;;;;;14.30;5.23;;;;;;;-144.30;53.88;85301.00;5111111;28;20209;-58
2023/10/07 03:59:32;;;;;;;4.57;4.00;;;;;;;-144.30;53.60;85316.91;5111017;28;20194;-58
2023/10/07 04:02:00;;;;;;;5.17;3.80;;;;;;;-144.30;54.18;85360.66;5110921;28;20753;-58
2023/10/07 04:04:28;;;;;;;6.23;3.60;;;;;;;-144.30;54.43;85388.47;5109792;28;20626;-58
2023/10/07 04:07:00;;;;;;;7.97;3.50;;;;;;;-144.30;54.51;85380.53;5111059;28;20194;-57
2023/10/07 04:09:33;;;;;;;7.07;4.10;;;;;;;-144.30;55.21;85364.63;5110706;28;20230;-58
2023/10/07 04:12:00;;;;;;;4.77;3.53;;;;;;;-144.30;55.37;85404.38;5110867;28;20198;-56
2023/10/07 04:14:28;;;;;;;4.77;3.57;;;;;;;-144.30;55.50;85398.41;5111022;28;20703;-57
2023/10/07 04:16:59;;;;;;;3.63;3.30;;;;;;;-144.30;55.53;85356.69;5110886;28;20198;-57
2023/10/07 04:19:38;;;;;;;4.70;3.83;;;;;;;-144.30;55.62;85398.41;5110982;28;20637;-57
2023/10/07 04:22:08;;;;;;;5.27;3.70;;;;;;;-144.30;55.56;85406.38;5110427;28;20225;-57
2023/10/07 04:24:38;;;;;;;6.00;3.80;;;;;;;-144.30;55.34;85396.44;5110525;28;20743;-57
2023/10/07 04:27:06;;;;;;;5.77;3.97;;;;;;;-144.30;55.35;85396.44;5118025;27;20229;-57
2023/10/07 04:29:33;;;;;;;5.13;3.60;;;;;;;-144.30;55.47;85392.47;5127551;27;20247;-58
2023/10/07 04:32:11;;;;;;;5.03;3.60;;;;;;;-144.30;55.83;85400.41;5093614;28;20213;-59
2023/10/07 04:35:00;;;;;;;8.83;4.33;;;;;;;-144.30;56.27;85420.28;5109779;28;20203;-59
2023/10/07 04:37:38;;;;;;;6.10;3.70;;;;;;;-144.30;56.27;85420.28;5100467;28;20198;-58
2023/10/07 04:43:25;;;;;;;6.97;4.17;;;;;;;-144.30;56.54;85406.38;5103896;28;20216;-57
2023/10/07 04:45:49;;;;;;;11.60;4.03;;;;;;;-144.30;56.45;85416.31;5104116;28;20282;-58
2023/10/07 04:48:24;;;;;;;5.97;4.10;;;;;;;-144.30;56.63;85464.03;5100557;28;20296;-58
2023/10/07 04:51:03;;;;;;;7.27;4.70;;;;;;;-144.30;56.52;85412.34;5104714;28;20201;-57
2023/10/07 04:53:38;;;;;;;11.63;5.50;;;;;;;-144.30;56.75;85432.22;5098136;28;20203;-59
2023/10/07 04:56:06;;;;;;;4.27;3.87;;;;;;;-144.30;56.99;85416.31;5105199;28;20205;-57
2023/10/07 04:58:32;;;;;;;7.13;4.37;;;;;;;-144.30;57.26;85450.09;5107063;28;20199;-58
2023/10/07 05:01:22;;;;;;;4.93;4.37;;;;;;;-144.30;57.44;85400.41;5094617;28;20228;-56
2023/10/07 05:03:51;;;;;;;9.03;4.87;;;;;;;-144.30;57.16;85380.53;5108925;28;20314;-57
2023/10/07 05:06:18;;;;;;;5.27;4.20;;;;;;;-144.30;57.16;85392.47;5109810;28;20198;-58
2023/10/07 05:08:45;;;;;;;12.07;5.80;;;;;;;-144.30;56.94;85414.31;5110088;28;20199;-57
2023/10/07 05:11:17;;;;;;;9.73;4.57;;;;;;;-144.30;56.69;85370.59;5110233;28;20216;-58
2023/10/07 05:13:46;;;;;;;9.13;5.10;;;;;;;-144.30;56.31;85392.47;5110204;28;20209;-56
2023/10/07 05:16:12;;;;;;;10.23;5.20;;;;;;;-144.30;55.76;85388.47;5110026;28;20190;-56
2023/10/07 05:18:39;;;;;;;6.80;5.60;;;;;;;-144.30;55.03;85193.66;5109986;28;20203;-58
2023/10/07 05:21:06;;;;;;;8.53;5.03;;;;;;;-144.30;52.80;85249.34;5109995;28;20201;-58
2023/10/07 05:23:36;;;;;;;8.00;5.97;;;;;;;-144.30;50.31;85126.09;5110032;28;20225;-59
2023/10/07 05:26:08;;;;;;;8.40;5.60;;;;;;;-144.30;47.78;84990.91;5102287;28;20223;-59
2023/10/07 05:28:36;;;;;;;9.35;5.30;;;;;;;-144.30;45.39;84921.34;5089628;28;20199;-58
2023/10/07 05:31:04;;;;;;;16.13;6.40;;;;;;;-144.30;43.38;84724.56;5091609;28;20230;-59
2023/10/07 05:33:34;;;;;;;8.02;5.75;;;;;;;-144.30;41.90;84645.06;5098636;28;20204;-59
2023/10/07 05:36:04;;;;;;;14.23;6.32;;;;;;;-144.30;40.86;84563.59;5098663;28;20278;-61
2023/10/07 05:38:33;;;;;;;9.07;7.22;;;;;;;-144.30;39.24;84400.63;5100775;28;20191;-58
2023/10/07 05:41:01;;;;;;;7.15;6.13;;;;;;;-144.30;38.28;84354.91;5109703;28;20199;-59
2023/10/07 05:43:28;;;;;;;9.63;5.78;;;;;;;-144.30;36.86;84245.59;5109490;28;20224;-59
2023/10/07 05:45:55;;;;;;;12.77;5.68;;;;;;;-144.30;36.47;84237.66;5113396;28;20212;-59
2023/10/07 05:48:23;;;;;;;13.13;10.05;;;;;;;-144.30;36.35;84203.88;5112690;28;20197;-59
2023/10/07 05:50:50;;;;;;;11.55;6.03;;;;;;;-144.30;35.63;84174.06;5113271;28;20199;-58
2023/10/07 05:53:17;;;;;;;8.32;6.70;;;;;;;-144.30;35.44;84106.50;5106006;28;20195;-59
2023/10/07 05:55:44;;;;;;;13.90;5.15;;;;;;;-144.30;34.87;84060.78;5092521;28;20195;-59
2023/10/07 05:58:13;;;;;;;6.13;5.30;;;;;;;-144.30;34.38;84021.06;5092208;27;20215;-59
2023/10/07 06:00:40;;;;;;;9.63;7.07;;;;;;;-144.30;33.73;83937.59;5092981;28;20202;-58
2023/10/07 06:03:08;;;;;;;11.27;9.82;;;;;;;-144.30;34.26;84009.13;5092937;28;20195;-58
2023/10/07 06:05:37;;;;;;;10.02;7.63;;;;;;;-144.30;34.47;84072.72;5093185;28;20246;-58
2023/10/07 06:08:05;;;;;;;9.43;5.72;;;;;;;-144.30;33.71;83911.75;5093033;28;20202;-58
2023/10/07 06:10:33;;;;;;;10.23;7.00;;;;;;;-144.30;32.75;83764.72;5092759;28;20235;-57
2023/10/07 06:13:08;;;;;;;17.55;6.93;;;;;;;-144.30;31.58;83637.56;5093000;28;20234;-57
2023/10/07 06:15:37;;;;;;;11.95;8.48;;;;;;;-144.30;30.94;83488.53;5097183;28;20190;-57
2023/10/07 06:18:05;;;;;;;10.73;5.88;;;;;;;-144.30;30.67;83456.75;5099993;28;20245;-58
2023/10/07 06:20:37;;;;;;;9.48;6.25;;;;;;;-144.30;29.85;83337.53;5093431;28;20188;-57
2023/10/07 06:23:13;;;;;;;14.93;6.10;;;;;;;-144.30;29.97;83291.84;5108615;28;20201;-58
2023/10/07 06:25:41;;;;;;;11.98;7.82;;;;;;;-144.30;29.75;83315.69;5105139;28;20271;-58
2023/10/07 06:28:10;;;;;;;13.02;10.27;;;;;;;-144.30;29.29;83162.72;5109660;28;20194;-59
2023/10/07 06:30:42;;;;;;;15.45;5.68;;;;;;;-144.30;28.69;83051.47;5099382;28;20211;-58
2023/10/07 06:33:12;;;;;;;12.15;6.22;;;;;;;-144.30;28.32;82989.88;5101513;28;20196;-59
2023/10/07 06:35:39;;;;;;;11.70;6.40;;;;;;;-144.30;28.11;82981.94;5103495;28;20194;-58
2023/10/07 06:38:06;;;;;;;8.18;5.55;;;;;;;-144.30;27.67;82785.28;5101307;28;20217;-59
2023/10/07 06:40:35;;;;;;;12.82;4.97;;;;;;;-144.30;27.18;82676.03;5101917;28;20191;-58
2023/10/07 06:43:02;;;;;;;10.65;5.65;;;;;;;-144.30;26.75;82598.56;5102821;28;20195;-59
2023/10/07 06:45:35;;;;;;;5.95;5.10;;;;;;;-144.30;26.29;82439.66;5092007;28;21084;-58
2023/10/07 06:48:08;;;;;;;8.57;4.88;;;;;;;-144.30;26.12;82403.91;5092018;28;20586;-61
2023/10/07 06:50:41;;;;;;;6.57;5.40;;;;;;;-144.30;25.92;82391.97;5092299;28;20199;-58
2023/10/07 06:53:11;;;;;;;5.15;4.68;;;;;;;-144.30;26.08;82382.03;5092052;28;20198;-59
2023/10/07 06:55:43;;;;;;;10.40;5.82;;;;;;;-144.30;25.91;82358.22;5090949;28;20657;-60
2023/10/07 06:58:11;;;;;;;6.68;5.03;;;;;;;-144.30;25.97;82405.88;5092175;28;20723;-58
2023/10/07 07:00:47;;;;;;;26.42;20.15;;;;;;;-144.30;25.20;82233.09;5101944;28;20246;-58
2023/10/07 07:03:18;;;;;;;15.35;6.22;;;;;;;-144.30;25.34;82356.22;5102456;28;20656;-58
2023/10/07 07:05:46;;;;;;;8.35;5.43;;;;;;;-144.30;26.83;82821.03;5096883;28;20287;-58
2023/10/07 07:08:12;;;;;;;13.07;5.90;;;;;;;-144.30;27.93;83119.00;5091469;28;20195;-58
2023/10/07 07:10:40;;;;;;;14.30;7.15;;;;;;;-144.30;29.48;83387.22;5091338;28;20584;-57
2023/10/07 07:13:13;;;;;;;10.00;5.85;;;;;;;-144.30;30.60;83508.41;5090966;28;20737;-57
2023/10/07 07:15:41;;;;;;;8.88;6.30;;;;;;;-144.30;31.59;83766.72;5099746;28;20205;-57
2023/10/07 07:18:14;;;;;;;9.48;5.32;;;;;;;-144.30;32.69;83830.28;5112004;28;20635;-58
2023/10/07 07:23:35;;;;;;;6.35;4.65;;;;;;;-144.30;33.82;84034.97;5103853;28;20684;-57
2023/10/07 07:26:06;;;;;;;4.43;4.07;;;;;;;-144.30;34.27;84136.31;5111568;28;20611;-56
2023/10/07 07:28:34;;;;;;;4.93;4.43;;;;;;;-144.30;34.91;84209.84;5111488;28;20199;-56
2023/10/07 07:31:02;;;;;;;5.10;4.00;;;;;;;-144.30;35.68;84263.50;5096287;28;20230;-57
2023/10/07 07:33:34;;;;;;;7.30;5.15;;;;;;;-144.30;35.69;84255.53;5109593;28;20205;-57
2023/10/07 07:36:09;;;;;;;9.38;5.00;;;;;;;-144.30;35.82;84291.31;5111101;28;20206;-57
2023/10/07 07:38:44;;;;;;;7.22;4.90;;;;;;;-144.30;36.18;84303.25;5111243;28;20190;-57
2023/10/07 07:41:26;;;;;;;6.68;4.72;;;;;;;-144.30;36.25;84279.38;5111098;28;20189;-58
2023/10/07 07:43:58;;;;;;;10.50;6.00;;;;;;;-144.30;36.63;84297.28;5110849;28;20303;-58
2023/10/07 07:46:30;;;;;;;11.30;7.15;;;;;;;-144.30;36.44;84289.31;5110830;28;20195;-58
2023/10/07 07:49:06;;;;;;;10.02;7.07;;;;;;;-144.30;36.93;84287.34;5111381;28;20684;-57
2023/10/07 07:51:39;;;;;;;7.57;6.88;;;;;;;-144.30;37.14;84303.25;5111071;28;20758;-58
2023/10/07 07:54:07;;;;;;;6.50;5.90;;;;;;;-144.30;37.17;84323.13;5111042;28;20560;-57
2023/10/07 07:56:35;;;;;;;6.82;6.20;;;;;;;-144.30;37.25;84287.34;5110706;28;20205;-58
2023/10/07 07:59:06;;;;;;;8.82;4.88;;;;;;;-144.30;37.33;84327.09;5110892;28;20198;-59
2023/10/07 08:01:33;;;;;;;10.07;5.95;;;;;;;-144.30;37.39;84305.22;5110981;28;20220;-58
2023/10/07 08:04:09;;;;;;;13.25;6.97;;;;;;;-144.30;37.48;84307.22;5110620;28;20222;-59
2023/10/07 08:06:37;;;;;;;10.85;6.50;;;;;;;-144.30;37.65;84255.53;5110767;28;20289;-57
2023/10/07 08:09:05;;;;;;;9.60;7.85;;;;;;;-144.30;37.66;84346.97;5110980;28;20206;-57
2023/10/07 08:11:38;;;;;;;7.60;6.82;;;;;;;-144.30;37.55;84307.22;5110135;28;20285;-57
2023/10/07 08:14:09;;;;;;;14.32;8.52;;;;;;;-144.30;37.59;84311.19;5111050;28;20650;-57
2023/10/07 08:16:46;;;;;;;9.15;8.25;;;;;;;-144.30;37.88;84370.81;5110885;28;20243;-58
2023/10/07 08:19:13;;;;;;;14.07;8.70;;;;;;;-144.30;37.87;84311.19;5111225;28;20633;-58
2023/10/07 08:21:45;;;;;;;13.43;9.40;;;;;;;-144.30;38.14;84331.06;5110700;28;20649;-58
2023/10/07 08:24:13;;;;;;;18.10;8.80;;;;;;;-144.30;37.84;84162.16;5110631;28;20283;-57
2023/10/07 08:26:48;;;;;;;10.32;7.35;;;;;;;-144.30;37.70;84346.97;5110740;28;20238;-58
2023/10/07 08:29:31;;;;;;;8.43;5.90;;;;;;;-144.30;38.00;84354.91;5110869;28;20215;-57
2023/10/07 08:31:59;;;;;;;5.40;4.60;;;;;;;-144.30;37.71;84386.72;5110553;28;20246;-57
2023/10/07 08:34:32;;;;;;;21.08;13.45;;;;;;;-144.30;38.03;84392.66;5110490;28;20196;-58
2023/10/07 08:37:02;;;;;;;6.68;5.28;;;;;;;-144.30;37.98;84368.81;5110753;28;20264;-58
2023/10/07 08:39:44;;;;;;;4.57;4.18;;;;;;;-144.30;37.69;84388.69;5110685;28;20281;-58
2023/10/07 08:42:17;;;;;;;5.90;5.32;;;;;;;-144.30;37.75;84398.63;5110742;28;20846;-59
2023/10/07 08:44:51;;;;;;;7.90;5.30;;;;;;;-144.30;37.57;84420.50;5102440;28;20289;-58
2023/10/07 08:47:21;;;;;;;5.85;5.25;;;;;;;-144.30;37.28;84394.66;5090174;28;20298;-59
2023/10/07 08:49:49;;;;;;;9.63;6.30;;;;;;;-144.30;37.35;84392.66;5090159;28;20202;-58
2023/10/07 08:52:19;;;;;;;6.80;5.40;;;;;;;-144.30;37.81;84366.84;5090495;28;20585;-58
2023/10/07 08:54:47;;;;;;;6.10;5.13;;;;;;;-144.30;37.23;84384.72;5090393;28;20573;-58
2023/10/07 08:57:19;;;;;;;5.82;4.32;;;;;;;-144.30;37.60;84426.47;5090065;28;20210;-58
2023/10/07 08:59:49;;;;;;;7.82;5.25;;;;;;;-144.30;37.81;84364.84;5090162;28;20717;-58
2023/10/07 09:09:37;;;;;;;6.55;5.45;;;;;;;-144.30;37.88;84331.06;5103348;22;20237;-58
2023/10/07 09:12:11;;;;;;;13.55;5.65;;;;;;;-144.30;37.76;84406.59;5090175;28;20202;-58
2023/10/07 09:14:45;;;;;;;7.13;5.25;;;;;;;-144.30;37.58;84454.28;5090452;28;20195;-58
2023/10/07 09:17:11;;;;;;;9.73;5.50;;;;;;;-144.30;37.31;84410.56;5090435;28;20199;-58
2023/10/07 09:19:43;;;;;;;9.95;5.10;;;;;;;-144.30;37.16;84436.38;5092122;28;20202;-53
2023/10/07 10:05:29;;;;;;;5.05;4.38;;;;;;;-144.30;37.16;84362.84;5131091;22;20260;-57
2023/10/07 10:08:28;;;;;;;5.45;4.63;;;;;;;-144.30;37.17;84390.69;5112317;28;20440;-57
2023/10/07 10:10:58;;;;;;;6.78;5.25;;;;;;;-144.30;37.16;84335.03;5113414;28;20285;-58
2023/10/07 10:13:51;;;;;;;12.23;4.93;;;;;;;-144.30;37.47;84341.00;5113642;28;20241;-56
2023/10/07 10:16:29;;;;;;;6.25;4.60;;;;;;;-144.30;37.31;84199.91;5113756;28;20230;-57
2023/10/07 10:19:17;;;;;;;8.10;5.40;;;;;;;-144.30;37.27;84311.19;5110741;27;20207;-54
2023/10/07 10:21:45;;;;;;;5.55;4.63;;;;;;;-144.30;37.21;84319.13;5113273;28;20195;-53
2023/10/07 10:24:16;;;;;;;6.45;5.05;;;;;;;-144.30;37.27;84323.13;5113192;28;20190;-58
2023/10/07 10:26:44;;;;;;;8.45;4.78;;;;;;;-144.30;37.17;84323.13;5112913;28;20290;-53
2023/10/07 10:29:17;;;;;;;7.70;4.88;;;;;;;-144.30;37.16;84309.19;5113113;28;20199;-57
2023/10/07 10:31:50;;;;;;;7.65;4.40;;;;;;;-144.30;37.33;84271.44;5111736;28;20197;-58
2023/10/07 10:34:20;;;;;;;7.95;5.45;;;;;;;-144.30;36.99;84285.34;5113252;28;20691;-57
2023/10/07 10:36:51;;;;;;;10.25;5.70;;;;;;;-144.30;37.04;84275.41;5112648;28;20251;-57
2023/10/07 10:39:22;;;;;;;8.20;6.03;;;;;;;-144.30;36.69;84293.31;5113161;28;20592;-56
2023/10/07 10:41:50;;;;;;;6.45;5.22;;;;;;;-144.30;36.99;84275.41;5112968;28;20692;-57
2023/10/07 10:44:17;;;;;;;5.63;5.13;;;;;;;-144.30;37.01;84239.66;5113108;28;20697;-57
2023/10/07 10:46:46;;;;;;;8.20;5.20;;;;;;;-144.30;36.71;84263.50;5111680;27;20712;-53
2023/10/07 10:49:15;;;;;;;8.75;4.90;;;;;;;-144.30;36.60;84279.38;5117604;27;20212;-54
2023/10/07 10:51:45;;;;;;;5.53;5.00;;;;;;;-144.30;36.46;84235.66;5119187;27;20240;-54
2023/10/07 10:54:18;;;;;;;13.20;5.03;;;;;;;-144.30;35.85;84231.69;5124944;27;20206;-54
2023/10/07 10:56:50;;;;;;;8.50;5.07;;;;;;;-144.30;35.92;84138.28;5120503;27;20201;-56
2023/10/07 10:59:18;;;;;;;4.47;4.13;;;;;;;-144.30;35.70;84178.03;5119326;27;20220;-56
2023/10/07 11:01:49;;;;;;;6.20;5.03;;;;;;;-144.30;35.70;84152.22;5129978;27;20194;-58
2023/10/07 11:04:19;;;;;;;8.27;4.85;;;;;;;-144.30;35.59;84176.06;5133282;27;20640;-57
2023/10/07 11:06:50;;;;;;;8.30;5.03;;;;;;;-144.30;35.56;84255.53;5129300;27;20214;-57
2023/10/07 11:09:25;;;;;;;5.45;4.95;;;;;;;-144.30;35.84;84249.59;5121584;27;20197;-57
2023/10/07 11:11:55;;;;;;;5.10;4.57;;;;;;;-144.30;35.32;84239.66;5120268;27;20255;-58
2023/10/07 11:14:23;;;;;;;12.13;4.88;;;;;;;-144.30;35.51;84259.50;5112155;28;20199;-57
2023/10/07 11:16:52;;;;;;;9.13;4.57;;;;;;;-144.30;35.55;84233.69;5115179;27;20608;-57
2023/10/07 11:19:19;;;;;;;11.35;4.90;;;;;;;-144.30;35.45;84239.66;5132633;27;20194;-57
2023/10/07 11:21:49;;;;;;;7.25;4.55;;;;;;;-144.30;34.90;84239.66;5121655;27;20197;-57
2023/10/07 11:24:30;;;;;;;8.90;4.85;;;;;;;-144.30;35.30;84247.59;5112257;28;20218;-57
2023/10/07 11:27:00;;;;;;;15.20;4.45;;;;;;;-144.30;35.30;84239.66;5116693;27;20686;-57
2023/10/07 11:29:31;;;;;;;5.68;4.90;;;;;;;-144.30;35.18;84273.44;5117881;27;20274;-54
2023/10/07 11:32:02;;;;;;;10.50;4.57;;;;;;;-144.30;34.96;84249.59;5118841;27;20202;-54
2023/10/07 11:34:36;;;;;;;9.43;5.05;;;;;;;-144.30;35.03;84197.91;5122002;27;20206;-57
2023/10/07 11:37:11;;;;;;;8.98;5.38;;;;;;;-144.30;35.08;84189.97;5124052;27;20199;-55
2023/10/07 11:39:44;;;;;;;8.63;4.25;;;;;;;-144.30;34.22;84211.81;5127891;27;20205;-54
2023/10/07 11:42:16;;;;;;;6.63;5.22;;;;;;;-144.30;35.03;84247.59;5130439;27;20297;-54
2023/10/07 11:44:47;;;;;;;9.45;4.07;;;;;;;-144.30;34.78;84231.69;5131454;27;20254;-54
2023/10/07 11:47:16;;;;;;;6.75;5.05;;;;;;;-144.30;34.79;84225.75;5131918;27;20267;-54
2023/10/07 11:49:43;;;;;;;7.32;5.38;;;;;;;-144.30;35.02;84231.69;5131981;27;20194;-54
2023/10/07 11:52:10;;;;;;;5.10;4.65;;;;;;;-144.30;34.76;84199.91;5132143;27;20571;-53
2023/10/07 11:54:39;;;;;;;13.05;4.93;;;;;;;-144.30;34.60;84201.88;5132009;27;20229;-54
2023/10/07 11:57:07;;;;;;;5.60;4.47;;;;;;;-144.30;34.71;84182.00;5132180;27;20670;-54
2023/10/07 11:59:35;;;;;;;9.43;4.88;;;;;;;-144.30;34.33;84207.84;5119777;27;20611;-54
2023/10/07 12:02:09;;;;;;;7.82;4.20;;;;;;;-144.30;34.01;84197.91;5110843;27;20440;-54
2023/10/07 12:04:39;;;;;;;7.10;4.53;;;;;;;-144.30;33.67;84203.88;5118412;27;20572;-54
2023/10/07 12:07:07;;;;;;;5.07;4.60;;;;;;;-144.30;34.04;84193.94;5110576;28;20231;-54
2023/10/07 12:09:37;;;;;;;7.72;5.43;;;;;;;-144.30;34.29;84191.94;5108917;28;20199;-53
2023/10/07 12:12:08;;;;;;;6.32;4.43;;;;;;;-144.30;33.88;84166.13;5110552;28;20201;-53
2023/10/07 12:14:35;;;;;;;5.95;4.53;;;;;;;-144.30;33.17;84162.16;5110355;28;20198;-53
2023/10/07 12:17:04;;;;;;;4.85;4.35;;;;;;;-144.30;32.46;84130.34;5111012;28;20198;-53
2023/10/07 12:19:32;;;;;;;4.18;3.13;;;;;;;-144.30;31.34;84174.06;5111118;28;20201;-53
2023/10/07 12:21:59;;;;;;;4.90;3.65;;;;;;;-144.30;30.84;84189.97;5111132;28;20649;-53
2023/10/07 12:24:26;;;;;;;4.68;4.28;;;;;;;-144.30;31.42;84166.13;5110958;28;20606;-54
2023/10/07 12:26:55;;;;;;;8.85;4.07;;;;;;;-144.30;32.13;84203.88;5110733;28;20275;-54
2023/10/07 12:29:24;;;;;;;7.03;4.13;;;;;;;-144.30;32.30;84156.19;5110864;28;20195;-53
2023/10/07 12:31:53;;;;;;;6.05;5.30;;;;;;;-144.30;31.71;84132.34;5111032;28;20229;-53